Star Dieppe — LEQZ3 — position and weather

sailwx.info

Track history (hours):
 
Tides and Currents Weather Stations Pressure Air Temp Water Temp Dewpoint Dewpoint Depression Visibility Wind Speed Wind Dir Waves Ship Positions

Star Dieppe

Last reported at 2015-Mar-24 21:28 UTC. Time now 2015-Mar-27 20:56 UTC.
Position N 51°19' W 128°25'.

Length 182 m; draft 10.4 m.

Type: Cargo ship. MMSI: 257439000.

Date/timePositionNaut miles runAvg speedWind from/ knotsBaromVisibWave heightAir tempDewpointWater temp
2015-Mar-24 21:28N 51°19' W 128°25'1311.5
2015-Mar-24 20:23N 51°09' W 128°13'1012.2
2015-Mar-24 19:32N 51°03' W 127°59'1212.5
2015-Mar-24 18:33N 50°56' W 127°43'1413.8
2015-Mar-24 17:34N 50°49' W 127°24'1413.4
2015-Mar-24 16:33N 50°44' W 127°04'1313.0
2015-Mar-24 15:33N 50°37' W 126°46'1312.3
2015-Mar-24 14:30N 50°30' W 126°30'6310.3
2015-Mar-24 08:21N 49°56' W 125°07'6 7.8
2015-Mar-24 07:33N 49°52' W 124°60'8 7.7
2015-Mar-24 06:30N 49°46' W 124°51'9 9.4
2015-Mar-24 05:33N 49°39' W 124°41'1211.7
2015-Mar-24 04:32N 49°31' W 124°28'1313.3
2015-Mar-24 03:33N 49°24' W 124°11'1313.2
2015-Mar-24 02:33N 49°23' W 123°51'1312.9
2015-Mar-24 01:33N 49°22' W 123°31'1211.4
2015-Mar-24 00:32N 49°29' W 123°17'  
2015-Mar-16 06:31N 49°31' W 123°16'1212.6
2015-Mar-16 05:33N 49°19' W 123°18'1312.5
2015-Mar-16 04:33N 49°07' W 123°21'1211.9
2015-Mar-16 03:33N 48°57' W 123°10'1111.4
2015-Mar-16 02:33N 48°49' W 122°59'1110.7
2015-Mar-16 01:33N 48°43' W 123°13'1211.8
2015-Mar-16 00:33N 48°51' W 123°24'8 7.8
2015-Mar-15 23:32N 48°54' W 123°36'2 2.2
2015-Mar-15 22:33N 48°52' W 123°38'0 0.0
2015-Mar-15 21:28N 48°52' W 123°38'0 0.0
2015-Mar-15 20:31N 48°52' W 123°38'0 0.0
2015-Mar-15 19:31N 48°52' W 123°38'0 0.0
2015-Mar-15 18:22N 48°52' W 123°38'0 0.0
2015-Mar-15 17:31N 48°52' W 123°38'0 0.0
2015-Mar-15 16:31N 48°52' W 123°38'0 0.0
2015-Mar-15 15:28N 48°52' W 123°38'0 0.0
2015-Mar-15 14:34N 48°52' W 123°38'0 0.0
2015-Mar-15 13:30N 48°52' W 123°38'0 0.0
2015-Mar-15 12:30N 48°52' W 123°38'0 0.0
2015-Mar-15 11:33N 48°52' W 123°38'0 0.0
2015-Mar-15 10:30N 48°52' W 123°38'0 0.0
2015-Mar-15 09:18N 48°52' W 123°38'0 0.0
2015-Mar-15 08:33N 48°52' W 123°38'0 0.0
2015-Mar-15 07:30N 48°52' W 123°38'0 0.0
2015-Mar-15 06:24N 48°52' W 123°38'0 0.0
2015-Mar-15 05:30N 48°52' W 123°38'0 0.0
2015-Mar-15 04:30N 48°52' W 123°38'0 0.0
2015-Mar-15 03:30N 48°52' W 123°38'0 0.0
2015-Mar-15 02:30N 48°52' W 123°38'0 0.0
2015-Mar-15 01:32N 48°52' W 123°38'0 0.0
2015-Mar-15 00:29N 48°52' W 123°38'0 0.0
2015-Mar-14 23:29N 48°52' W 123°38'0 0.0
2015-Mar-14 22:32N 48°52' W 123°38'0 0.0
2015-Mar-14 21:29N 48°52' W 123°38'  
Track history (hours):
 
Tides and Currents Weather Stations Pressure Air Temp Water Temp Dewpoint Dewpoint Depression Visibility Wind Speed Wind Dir Waves Ship Positions

Star Dieppe

Last reported at 2015-Mar-24 21:28 UTC. Time now 2015-Mar-27 20:56 UTC.
Position N 51°19' W 128°25'.

Length 182 m; draft 10.4 m.

Type: Cargo ship. MMSI: 257439000.

Date/timePositionNaut miles runAvg speedWind from/ knotsBaromVisibWave heightAir tempDewpointWater temp
2015-Mar-24 21:28N 51°19' W 128°25'1311.5
2015-Mar-24 20:23N 51°09' W 128°13'1012.2
2015-Mar-24 19:32N 51°03' W 127°59'1212.5
2015-Mar-24 18:33N 50°56' W 127°43'1413.8
2015-Mar-24 17:34N 50°49' W 127°24'1413.4
2015-Mar-24 16:33N 50°44' W 127°04'1313.0
2015-Mar-24 15:33N 50°37' W 126°46'1312.3
2015-Mar-24 14:30N 50°30' W 126°30'6310.3
2015-Mar-24 08:21N 49°56' W 125°07'6 7.8
2015-Mar-24 07:33N 49°52' W 124°60'8 7.7
2015-Mar-24 06:30N 49°46' W 124°51'9 9.4
2015-Mar-24 05:33N 49°39' W 124°41'1211.7
2015-Mar-24 04:32N 49°31' W 124°28'1313.3
2015-Mar-24 03:33N 49°24' W 124°11'1313.2
2015-Mar-24 02:33N 49°23' W 123°51'1312.9
2015-Mar-24 01:33N 49°22' W 123°31'1211.4
2015-Mar-24 00:32N 49°29' W 123°17'  
2015-Mar-16 06:31N 49°31' W 123°16'1212.6
2015-Mar-16 05:33N 49°19' W 123°18'1312.5
2015-Mar-16 04:33N 49°07' W 123°21'1211.9
2015-Mar-16 03:33N 48°57' W 123°10'1111.4
2015-Mar-16 02:33N 48°49' W 122°59'1110.7
2015-Mar-16 01:33N 48°43' W 123°13'1211.8
2015-Mar-16 00:33N 48°51' W 123°24'8 7.8
2015-Mar-15 23:32N 48°54' W 123°36'2 2.2
2015-Mar-15 22:33N 48°52' W 123°38'0 0.0
2015-Mar-15 21:28N 48°52' W 123°38'0 0.0
2015-Mar-15 20:31N 48°52' W 123°38'0 0.0
2015-Mar-15 19:31N 48°52' W 123°38'0 0.0
2015-Mar-15 18:22N 48°52' W 123°38'0 0.0
2015-Mar-15 17:31N 48°52' W 123°38'0 0.0
2015-Mar-15 16:31N 48°52' W 123°38'0 0.0
2015-Mar-15 15:28N 48°52' W 123°38'0 0.0
2015-Mar-15 14:34N 48°52' W 123°38'0 0.0
2015-Mar-15 13:30N 48°52' W 123°38'0 0.0
2015-Mar-15 12:30N 48°52' W 123°38'0 0.0
2015-Mar-15 11:33N 48°52' W 123°38'0 0.0
2015-Mar-15 10:30N 48°52' W 123°38'0 0.0
2015-Mar-15 09:18N 48°52' W 123°38'0 0.0
2015-Mar-15 08:33N 48°52' W 123°38'0 0.0
2015-Mar-15 07:30N 48°52' W 123°38'0 0.0
2015-Mar-15 06:24N 48°52' W 123°38'0 0.0
2015-Mar-15 05:30N 48°52' W 123°38'0 0.0
2015-Mar-15 04:30N 48°52' W 123°38'0 0.0
2015-Mar-15 03:30N 48°52' W 123°38'0 0.0
2015-Mar-15 02:30N 48°52' W 123°38'0 0.0
2015-Mar-15 01:32N 48°52' W 123°38'0 0.0
2015-Mar-15 00:29N 48°52' W 123°38'0 0.0
2015-Mar-14 23:29N 48°52' W 123°38'0 0.0
2015-Mar-14 22:32N 48°52' W 123°38'0 0.0
2015-Mar-14 21:29N 48°52' W 123°38'  

Dump ship's entire track history